Time;durP1;ratioP1;P1;durP2;ratioP2;P2;SDS_P1;SDS_P2;PMS_P1;PMS_P2;Temp;Humidity;BMP_temperature;BMP_pressure;BME280_temperature;BME280_humidity;BME280_pressure;Samples;Min_cycle;Max_cycle;Signal;HPM_P1;HPM_P2
2022/03/24 00:01:08;;;;;;;10.32;9.23;;;;;;;;;;5091919;28;20199;-83
2022/03/24 00:03:36;;;;;;;10.98;9.88;;;;;;;;;;5092434;28;20220;-83
2022/03/24 00:06:05;;;;;;;11.82;9.82;;;;;;;;;;5092200;28;20200;-84
2022/03/24 00:08:32;;;;;;;12.85;9.00;;;;;;;;;;5092170;28;20221;-83
2022/03/24 00:11:00;;;;;;;9.25;8.35;;;;;;;;;;5092300;28;20212;-84
2022/03/24 00:13:28;;;;;;;11.88;9.30;;;;;;;;;;5091661;28;20657;-84
2022/03/24 00:15:55;;;;;;;10.55;9.32;;;;;;;;;;5092603;28;20201;-84
2022/03/24 00:18:22;;;;;;;10.85;8.68;;;;;;;;;;5091767;28;20197;-83
2022/03/24 00:20:50;;;;;;;11.18;9.52;;;;;;;;;;5091447;28;20226;-83
2022/03/24 00:23:19;;;;;;;10.32;8.57;;;;;;;;;;5091453;28;20243;-82
2022/03/24 00:25:46;;;;;;;10.77;9.45;;;;;;;;;;5091912;28;20197;-84
2022/03/24 00:28:13;;;;;;;10.32;9.25;;;;;;;;;;5091887;28;20225;-83
2022/03/24 00:30:41;;;;;;;8.98;8.05;;;;;;;;;;5091621;28;20265;-83
2022/03/24 00:33:08;;;;;;;11.68;9.25;;;;;;;;;;5090987;28;20229;-83
2022/03/24 00:35:37;;;;;;;10.40;8.32;;;;;;;;;;5084239;28;20204;-82
2022/03/24 00:38:05;;;;;;;10.60;9.35;;;;;;;;;;5084736;28;20201;-84
2022/03/24 00:40:34;;;;;;;9.82;8.82;;;;;;;;;;5087553;28;20197;-83
2022/03/24 00:43:01;;;;;;;10.57;9.00;;;;;;;;;;5087373;28;20678;-83
2022/03/24 00:45:29;;;;;;;11.45;10.10;;;;;;;;;;5087213;28;20212;-84
2022/03/24 00:47:56;;;;;;;10.95;8.75;;;;;;;;;;5087288;28;20284;-84
2022/03/24 00:50:24;;;;;;;10.95;9.55;;;;;;;;;;5089379;28;20623;-84
2022/03/24 00:52:51;;;;;;;11.70;10.07;;;;;;;;;;5090340;28;20282;-82
2022/03/24 00:55:20;;;;;;;10.43;9.32;;;;;;;;;;5091228;28;20201;-84
2022/03/24 00:57:52;;;;;;;10.57;9.43;;;;;;;;;;5091020;28;20197;-83
2022/03/24 01:00:22;;;;;;;10.48;9.38;;;;;;;;;;5091208;28;20204;-84
2022/03/24 01:02:51;;;;;;;10.00;8.98;;;;;;;;;;5090909;28;20347;-82
2022/03/24 01:05:20;;;;;;;11.90;10.68;;;;;;;;;;5091128;28;20205;-83
2022/03/24 01:07:48;;;;;;;11.23;9.50;;;;;;;;;;5090332;28;20228;-82
2022/03/24 01:10:18;;;;;;;9.25;8.23;;;;;;;;;;5089823;28;20221;-83
2022/03/24 01:12:48;;;;;;;9.15;8.10;;;;;;;;;;5090057;28;20221;-83
2022/03/24 01:15:17;;;;;;;10.45;8.55;;;;;;;;;;5090657;28;20196;-82
2022/03/24 01:17:45;;;;;;;12.63;9.93;;;;;;;;;;5091033;28;20198;-83
2022/03/24 01:20:14;;;;;;;8.70;7.70;;;;;;;;;;5090067;28;20201;-83
2022/03/24 01:22:42;;;;;;;9.65;8.65;;;;;;;;;;5090262;28;20736;-83
2022/03/24 01:25:10;;;;;;;9.45;8.48;;;;;;;;;;5090497;28;20224;-84
2022/03/24 01:27:39;;;;;;;9.50;8.10;;;;;;;;;;5090661;28;20188;-84
2022/03/24 01:30:10;;;;;;;9.85;8.20;;;;;;;;;;5090002;28;20571;-81
2022/03/24 01:32:38;;;;;;;9.30;8.35;;;;;;;;;;5090061;28;20635;-84
2022/03/24 01:35:07;;;;;;;10.60;8.85;;;;;;;;;;5090026;28;20201;-84
2022/03/24 01:37:36;;;;;;;8.95;7.57;;;;;;;;;;5089880;28;20215;-84
2022/03/24 01:40:05;;;;;;;10.30;9.00;;;;;;;;;;5090192;28;20220;-84
2022/03/24 01:42:35;;;;;;;9.60;7.70;;;;;;;;;;5089413;28;20217;-83
2022/03/24 01:45:03;;;;;;;8.80;8.00;;;;;;;;;;5090021;28;20197;-83
2022/03/24 01:47:32;;;;;;;8.90;7.55;;;;;;;;;;5089293;28;20197;-83
2022/03/24 01:50:00;;;;;;;8.20;7.40;;;;;;;;;;5089894;28;20692;-84
2022/03/24 01:52:28;;;;;;;8.30;7.38;;;;;;;;;;5090179;28;20228;-84
2022/03/24 01:54:58;;;;;;;9.77;7.68;;;;;;;;;;5089582;28;20255;-84
2022/03/24 01:57:27;;;;;;;8.82;7.93;;;;;;;;;;5089474;28;20197;-84
2022/03/24 01:59:55;;;;;;;12.52;8.68;;;;;;;;;;5089182;28;20265;-83
2022/03/24 02:02:23;;;;;;;9.32;7.78;;;;;;;;;;5089273;28;20225;-83
2022/03/24 02:04:52;;;;;;;10.35;8.90;;;;;;;;;;5089965;28;20205;-83
2022/03/24 02:07:20;;;;;;;8.38;7.53;;;;;;;;;;5089095;28;20208;-83
2022/03/24 02:09:47;;;;;;;9.98;8.05;;;;;;;;;;5088945;28;20221;-82
2022/03/24 02:12:15;;;;;;;10.73;8.32;;;;;;;;;;5089457;28;20229;-83
2022/03/24 02:14:43;;;;;;;8.95;7.65;;;;;;;;;;5089907;28;20205;-84
2022/03/24 02:17:11;;;;;;;8.52;7.47;;;;;;;;;;5088940;28;20685;-83
2022/03/24 02:19:40;;;;;;;7.95;7.15;;;;;;;;;;5089426;28;20201;-84
2022/03/24 02:22:13;;;;;;;7.22;6.53;;;;;;;;;;5088789;28;20232;-83
2022/03/24 02:24:40;;;;;;;8.52;7.43;;;;;;;;;;5093634;28;20197;-84
2022/03/24 02:27:08;;;;;;;7.78;6.90;;;;;;;;;;5091967;28;20201;-83
2022/03/24 02:29:36;;;;;;;9.45;8.45;;;;;;;;;;5092263;28;20581;-82
2022/03/24 02:32:07;;;;;;;7.90;7.10;;;;;;;;;;5091851;28;20221;-84
2022/03/24 02:34:40;;;;;;;10.55;8.38;;;;;;;;;;5092208;28;20220;-83
2022/03/24 02:37:10;;;;;;;7.85;7.07;;;;;;;;;;5092353;28;20205;-83
2022/03/24 02:39:40;;;;;;;8.15;7.30;;;;;;;;;;5092479;28;20201;-83
2022/03/24 02:42:09;;;;;;;11.90;9.50;;;;;;;;;;5093078;28;20177;-83
2022/03/24 02:44:37;;;;;;;10.10;8.57;;;;;;;;;;5092399;28;20197;-82
2022/03/24 02:47:06;;;;;;;10.73;9.63;;;;;;;;;;5093103;28;20200;-84
2022/03/24 02:49:34;;;;;;;10.23;8.90;;;;;;;;;;5091897;28;20292;-83
2022/03/24 02:52:02;;;;;;;9.52;8.30;;;;;;;;;;5091857;28;20700;-83
2022/03/24 02:54:31;;;;;;;8.35;7.47;;;;;;;;;;5091168;28;20201;-82
2022/03/24 02:57:00;;;;;;;9.50;8.20;;;;;;;;;;5092709;28;20205;-83
2022/03/24 02:59:27;;;;;;;7.82;6.90;;;;;;;;;;5090944;28;20207;-84
2022/03/24 03:01:59;;;;;;;9.82;7.32;;;;;;;;;;5091654;28;20255;-84
2022/03/24 03:04:27;;;;;;;9.23;7.68;;;;;;;;;;5091880;28;20201;-82
2022/03/24 03:06:55;;;;;;;11.52;8.90;;;;;;;;;;5091362;28;20205;-83
2022/03/24 03:09:23;;;;;;;9.00;8.13;;;;;;;;;;5091709;28;20205;-81
2022/03/24 03:11:51;;;;;;;9.05;7.72;;;;;;;;;;5091698;28;20710;-83
2022/03/24 03:14:21;;;;;;;9.50;8.48;;;;;;;;;;5090915;28;20201;-82
2022/03/24 03:16:49;;;;;;;10.05;9.05;;;;;;;;;;5090883;28;20204;-82
2022/03/24 03:19:19;;;;;;;7.78;7.07;;;;;;;;;;5091491;28;20201;-84
2022/03/24 03:21:49;;;;;;;9.82;7.28;;;;;;;;;;5090494;28;20213;-83
2022/03/24 03:24:17;;;;;;;8.63;7.72;;;;;;;;;;5091131;28;20228;-84
2022/03/24 03:26:45;;;;;;;8.65;7.75;;;;;;;;;;5090443;28;20204;-83
2022/03/24 03:29:13;;;;;;;8.70;7.80;;;;;;;;;;5090418;28;20217;-84
2022/03/24 03:31:42;;;;;;;8.55;7.72;;;;;;;;;;5091000;28;20197;-82
2022/03/24 03:34:11;;;;;;;8.00;7.20;;;;;;;;;;5091762;28;20236;-83
2022/03/24 03:36:39;;;;;;;8.57;7.68;;;;;;;;;;5091479;28;20205;-83
2022/03/24 03:39:08;;;;;;;10.68;9.00;;;;;;;;;;5091176;28;20608;-83
2022/03/24 03:41:36;;;;;;;10.70;9.60;;;;;;;;;;5090732;28;20263;-82
2022/03/24 03:44:04;;;;;;;9.55;8.55;;;;;;;;;;5090909;28;20216;-83
2022/03/24 03:46:32;;;;;;;11.43;8.93;;;;;;;;;;5090864;28;20227;-83
2022/03/24 03:49:01;;;;;;;8.68;7.78;;;;;;;;;;5090280;28;20204;-83
2022/03/24 03:51:30;;;;;;;10.85;8.13;;;;;;;;;;5090806;28;20235;-84
2022/03/24 03:53:57;;;;;;;9.77;8.82;;;;;;;;;;5089445;28;20232;-83
2022/03/24 03:56:25;;;;;;;12.45;10.05;;;;;;;;;;5088641;28;20205;-84
2022/03/24 03:58:52;;;;;;;12.73;9.65;;;;;;;;;;5075668;28;20201;-84
2022/03/24 04:01:19;;;;;;;10.13;9.07;;;;;;;;;;5076283;28;20197;-84
2022/03/24 04:03:47;;;;;;;9.90;8.52;;;;;;;;;;5075901;28;20228;-85
2022/03/24 04:06:16;;;;;;;10.73;9.55;;;;;;;;;;5076222;28;20205;-84
2022/03/24 04:08:44;;;;;;;10.80;9.45;;;;;;;;;;5076216;28;20216;-84
2022/03/24 04:11:13;;;;;;;12.38;9.77;;;;;;;;;;5078033;28;20592;-84
2022/03/24 04:13:43;;;;;;;11.20;9.20;;;;;;;;;;5076160;28;20213;-84
2022/03/24 04:16:12;;;;;;;11.70;9.77;;;;;;;;;;5074096;28;20197;-84
2022/03/24 04:18:41;;;;;;;11.32;9.82;;;;;;;;;;5075852;28;20199;-84
2022/03/24 04:21:09;;;;;;;12.40;10.10;;;;;;;;;;5076245;28;20205;-84
2022/03/24 04:23:39;;;;;;;12.52;10.15;;;;;;;;;;5076399;28;20220;-84
2022/03/24 04:26:07;;;;;;;10.93;9.52;;;;;;;;;;5076359;28;20258;-85
2022/03/24 04:28:34;;;;;;;10.77;9.27;;;;;;;;;;5074887;28;20197;-84
2022/03/24 04:31:02;;;;;;;10.57;8.75;;;;;;;;;;5076012;28;20228;-84
2022/03/24 04:33:29;;;;;;;10.45;9.27;;;;;;;;;;5075242;28;20232;-84
2022/03/24 04:35:58;;;;;;;10.50;8.82;;;;;;;;;;5075224;28;20213;-84
2022/03/24 04:38:26;;;;;;;9.00;7.40;;;;;;;;;;5074169;28;20200;-84
2022/03/24 04:40:56;;;;;;;8.98;8.00;;;;;;;;;;5074897;28;20258;-84
2022/03/24 04:43:24;;;;;;;11.52;8.27;;;;;;;;;;5075179;28;20221;-84
2022/03/24 04:45:51;;;;;;;9.52;8.55;;;;;;;;;;5075054;28;20209;-84
2022/03/24 04:48:19;;;;;;;9.75;8.35;;;;;;;;;;5075160;28;20209;-84
2022/03/24 04:50:46;;;;;;;9.48;8.27;;;;;;;;;;5075468;28;20220;-84
2022/03/24 04:53:15;;;;;;;11.93;8.70;;;;;;;;;;5076241;28;20224;-84
2022/03/24 04:55:43;;;;;;;13.18;9.95;;;;;;;;;;5075522;28;20220;-84
2022/03/24 04:58:12;;;;;;;9.65;8.48;;;;;;;;;;5074842;28;20244;-84
2022/03/24 05:00:39;;;;;;;11.20;9.18;;;;;;;;;;5075059;28;20196;-84
2022/03/24 05:03:07;;;;;;;10.93;9.73;;;;;;;;;;5074382;28;20216;-84
2022/03/24 05:05:35;;;;;;;10.02;9.02;;;;;;;;;;5075102;28;20688;-84
2022/03/24 05:08:03;;;;;;;13.05;9.68;;;;;;;;;;5075760;28;20210;-84
2022/03/24 05:10:30;;;;;;;11.15;9.50;;;;;;;;;;5074688;28;20730;-84
2022/03/24 05:12:58;;;;;;;11.05;9.90;;;;;;;;;;5073842;28;20225;-84
2022/03/24 05:15:27;;;;;;;12.55;9.43;;;;;;;;;;5074598;28;20201;-84
2022/03/24 05:17:54;;;;;;;13.05;9.88;;;;;;;;;;5073800;28;20669;-83
2022/03/24 05:20:23;;;;;;;13.18;10.60;;;;;;;;;;5073486;28;20556;-84
2022/03/24 05:22:50;;;;;;;12.52;10.38;;;;;;;;;;5074034;28;20223;-84
2022/03/24 05:25:18;;;;;;;10.95;9.15;;;;;;;;;;5074514;28;20204;-84
2022/03/24 05:27:45;;;;;;;15.35;11.23;;;;;;;;;;5074611;28;20205;-84
2022/03/24 05:30:13;;;;;;;14.93;11.38;;;;;;;;;;5073309;28;20220;-84
2022/03/24 05:32:42;;;;;;;12.90;11.07;;;;;;;;;;5073907;28;20235;-84
2022/03/24 05:35:11;;;;;;;12.30;10.65;;;;;;;;;;5074410;28;20653;-85
2022/03/24 05:37:38;;;;;;;12.95;11.52;;;;;;;;;;5075704;28;20235;-85
2022/03/24 05:40:07;;;;;;;12.55;11.15;;;;;;;;;;5080848;28;20205;-84
2022/03/24 05:42:35;;;;;;;12.45;10.57;;;;;;;;;;5082181;28;20618;-84
2022/03/24 05:45:04;;;;;;;13.57;10.65;;;;;;;;;;5074875;28;20209;-84
2022/03/24 05:47:32;;;;;;;14.30;10.93;;;;;;;;;;5073834;28;20205;-77
2022/03/24 05:50:00;;;;;;;13.63;10.45;;;;;;;;;;5071426;28;20228;-77
2022/03/24 05:52:28;;;;;;;12.80;10.00;;;;;;;;;;5071245;28;20236;-77
2022/03/24 05:54:55;;;;;;;10.70;9.38;;;;;;;;;;5071238;28;20201;-77
2022/03/24 05:57:22;;;;;;;11.40;9.65;;;;;;;;;;5072303;28;20628;-77
2022/03/24 05:59:50;;;;;;;14.00;11.32;;;;;;;;;;5074973;28;20715;-77
2022/03/24 06:02:18;;;;;;;11.57;10.38;;;;;;;;;;5075245;28;20705;-78
2022/03/24 06:04:46;;;;;;;11.73;10.35;;;;;;;;;;5075194;28;20209;-77
2022/03/24 06:07:15;;;;;;;14.15;10.65;;;;;;;;;;5075091;28;20205;-77
2022/03/24 06:09:42;;;;;;;12.40;10.40;;;;;;;;;;5074827;28;20207;-77
2022/03/24 06:12:13;;;;;;;13.68;10.27;;;;;;;;;;5075791;28;20250;-78
2022/03/24 06:14:41;;;;;;;12.63;10.48;;;;;;;;;;5076038;28;20715;-77
2022/03/24 06:17:09;;;;;;;10.70;9.57;;;;;;;;;;5076516;28;20263;-78
2022/03/24 06:19:38;;;;;;;10.48;9.32;;;;;;;;;;5076329;28;20224;-77
2022/03/24 06:22:07;;;;;;;10.57;8.68;;;;;;;;;;5075654;28;20266;-78
2022/03/24 06:24:36;;;;;;;7.80;7.00;;;;;;;;;;5076463;28;20229;-78
2022/03/24 06:27:03;;;;;;;7.40;6.30;;;;;;;;;;5077529;28;20205;-78
2022/03/24 06:29:31;;;;;;;8.75;7.18;;;;;;;;;;5075145;28;20676;-77
2022/03/24 06:31:59;;;;;;;8.18;6.88;;;;;;;;;;5074176;28;20216;-78
2022/03/24 06:34:26;;;;;;;8.32;7.47;;;;;;;;;;5074637;28;20201;-78
2022/03/24 06:36:54;;;;;;;8.07;7.20;;;;;;;;;;5074836;28;20208;-78
2022/03/24 06:39:21;;;;;;;11.63;9.77;;;;;;;;;;5074995;28;20339;-77
2022/03/24 06:41:50;;;;;;;10.52;9.30;;;;;;;;;;5074941;28;20212;-78
2022/03/24 06:44:17;;;;;;;11.70;9.50;;;;;;;;;;5074655;28;20209;-78
2022/03/24 06:46:45;;;;;;;11.55;9.13;;;;;;;;;;5076230;28;20680;-78
2022/03/24 06:49:12;;;;;;;10.20;8.60;;;;;;;;;;5078160;28;20282;-78
2022/03/24 06:51:39;;;;;;;9.70;8.60;;;;;;;;;;5074063;28;20225;-78
2022/03/24 06:54:07;;;;;;;10.20;8.57;;;;;;;;;;5076922;28;20251;-77
2022/03/24 06:56:34;;;;;;;10.60;8.55;;;;;;;;;;5078954;28;20197;-78
2022/03/24 06:59:03;;;;;;;10.93;9.52;;;;;;;;;;5078488;28;20660;-77
2022/03/24 07:01:30;;;;;;;13.30;12.00;;;;;;;;;;5074544;28;20224;-78
2022/03/24 07:03:57;;;;;;;12.95;10.52;;;;;;;;;;5074934;28;20278;-78
2022/03/24 07:06:25;;;;;;;14.95;12.65;;;;;;;;;;5075834;28;20278;-78
2022/03/24 07:08:53;;;;;;;12.52;10.93;;;;;;;;;;5075069;28;20212;-78
2022/03/24 07:11:20;;;;;;;13.07;10.93;;;;;;;;;;5079533;28;20220;-78
2022/03/24 07:13:47;;;;;;;13.85;11.90;;;;;;;;;;5074800;28;20278;-77
2022/03/24 07:16:16;;;;;;;14.70;13.05;;;;;;;;;;5074571;28;20205;-78
2022/03/24 07:18:43;;;;;;;12.85;11.18;;;;;;;;;;5074489;28;20676;-77
2022/03/24 07:21:10;;;;;;;18.27;14.10;;;;;;;;;;5074281;28;20205;-78
2022/03/24 07:23:38;;;;;;;11.93;10.63;;;;;;;;;;5073992;28;20265;-78
2022/03/24 07:26:06;;;;;;;10.77;9.13;;;;;;;;;;5074114;28;20212;-78
2022/03/24 07:28:33;;;;;;;10.63;9.60;;;;;;;;;;5074175;28;20628;-77
2022/03/24 07:31:10;;;;;;;11.85;10.25;;;;;;;;;;5073502;28;20208;-78
2022/03/24 07:33:39;;;;;;;10.85;9.73;;;;;;;;;;5074189;28;20232;-77
2022/03/24 07:36:07;;;;;;;10.40;9.30;;;;;;;;;;5074538;28;20209;-78
2022/03/24 07:38:35;;;;;;;8.93;8.02;;;;;;;;;;5074790;28;20700;-80
2022/03/24 07:41:02;;;;;;;9.27;8.05;;;;;;;;;;5074502;28;20213;-77
2022/03/24 07:43:30;;;;;;;13.23;10.35;;;;;;;;;;5078045;28;20577;-78
2022/03/24 07:45:57;;;;;;;12.00;10.65;;;;;;;;;;5074096;28;20676;-78
2022/03/24 07:48:26;;;;;;;13.75;11.20;;;;;;;;;;5075231;28;20201;-78
2022/03/24 07:50:57;;;;;;;11.02;9.75;;;;;;;;;;5075105;28;20231;-78
2022/03/24 07:53:44;;;;;;;12.00;10.35;;;;;;;;;;5078317;28;20229;-76
2022/03/24 07:56:12;;;;;;;10.93;9.82;;;;;;;;;;5076697;28;20239;-78
2022/03/24 07:58:39;;;;;;;10.15;9.13;;;;;;;;;;5076579;28;20209;-78
2022/03/24 08:01:06;;;;;;;13.10;10.90;;;;;;;;;;5081676;28;20226;-77
2022/03/24 08:03:34;;;;;;;15.55;13.05;;;;;;;;;;5081238;28;20227;-78
2022/03/24 08:06:03;;;;;;;11.45;10.25;;;;;;;;;;5083096;28;20213;-78
2022/03/24 08:08:30;;;;;;;13.13;11.13;;;;;;;;;;5074330;28;20208;-78
2022/03/24 08:10:58;;;;;;;14.43;12.32;;;;;;;;;;5068269;28;20208;-80
2022/03/24 08:13:26;;;;;;;12.75;11.43;;;;;;;;;;5069080;28;20296;-78
2022/03/24 08:15:56;;;;;;;13.27;11.95;;;;;;;;;;5066900;28;20201;-78
2022/03/24 08:18:23;;;;;;;16.48;12.35;;;;;;;;;;5072817;28;20594;-79
2022/03/24 08:20:51;;;;;;;14.77;12.18;;;;;;;;;;5072977;28;20212;-77
2022/03/24 08:23:21;;;;;;;13.65;12.25;;;;;;;;;;5067069;28;20692;-77
2022/03/24 08:25:48;;;;;;;12.40;10.98;;;;;;;;;;5067631;28;20258;-78
2022/03/24 08:28:16;;;;;;;12.60;11.30;;;;;;;;;;5073014;28;20205;-78
2022/03/24 08:30:45;;;;;;;12.48;11.18;;;;;;;;;;5073795;28;20220;-78
2022/03/24 08:33:13;;;;;;;10.93;9.82;;;;;;;;;;5072716;28;20275;-78
2022/03/24 08:35:42;;;;;;;10.95;9.40;;;;;;;;;;5073263;28;20224;-77
2022/03/24 08:38:10;;;;;;;11.55;10.32;;;;;;;;;;5072269;28;20201;-77
2022/03/24 08:40:39;;;;;;;12.15;10.93;;;;;;;;;;5072594;28;20205;-77
2022/03/24 08:43:07;;;;;;;13.70;12.27;;;;;;;;;;5071213;28;20273;-77
2022/03/24 08:45:35;;;;;;;11.75;10.50;;;;;;;;;;5072277;28;20703;-77
2022/03/24 08:48:03;;;;;;;10.65;9.55;;;;;;;;;;5072772;28;20407;-77
2022/03/24 08:50:30;;;;;;;11.15;9.68;;;;;;;;;;5072287;28;20246;-77
2022/03/24 08:52:58;;;;;;;10.38;8.65;;;;;;;;;;5071564;28;20391;-77
2022/03/24 08:55:25;;;;;;;11.38;10.05;;;;;;;;;;5072166;28;20258;-78
2022/03/24 08:57:54;;;;;;;11.68;10.27;;;;;;;;;;5072756;28;20241;-77
2022/03/24 09:00:23;;;;;;;11.98;10.02;;;;;;;;;;5072374;28;20205;-78
2022/03/24 09:02:53;;;;;;;12.43;9.15;;;;;;;;;;5072142;28;20221;-77
2022/03/24 09:05:21;;;;;;;11.70;10.05;;;;;;;;;;5072343;28;20274;-78
2022/03/24 09:07:49;;;;;;;10.93;8.70;;;;;;;;;;5071860;28;20590;-78
2022/03/24 09:10:18;;;;;;;10.00;9.02;;;;;;;;;;5072418;28;20768;-78
2022/03/24 09:12:47;;;;;;;9.25;8.18;;;;;;;;;;5071666;28;20264;-78
2022/03/24 09:15:19;;;;;;;14.13;10.93;;;;;;;;;;5072563;28;20216;-78
2022/03/24 09:17:47;;;;;;;12.25;10.82;;;;;;;;;;5072629;28;20656;-78
2022/03/24 09:20:18;;;;;;;11.48;10.27;;;;;;;;;;5072443;28;20292;-77
2022/03/24 09:22:47;;;;;;;8.95;7.88;;;;;;;;;;5072213;28;20229;-78
2022/03/24 09:25:16;;;;;;;9.85;8.82;;;;;;;;;;5072661;28;20263;-77
2022/03/24 09:27:44;;;;;;;12.70;10.38;;;;;;;;;;5072344;28;20213;-78
2022/03/24 09:30:15;;;;;;;12.55;10.75;;;;;;;;;;5072994;28;20215;-78
2022/03/24 09:32:45;;;;;;;12.35;10.63;;;;;;;;;;5074002;28;20239;-77
2022/03/24 09:35:13;;;;;;;11.02;9.93;;;;;;;;;;5080751;28;20196;-77
2022/03/24 09:37:41;;;;;;;9.68;8.68;;;;;;;;;;5082520;28;20699;-77
2022/03/24 09:40:10;;;;;;;9.52;8.52;;;;;;;;;;5079025;28;20205;-78
2022/03/24 09:42:38;;;;;;;10.18;9.07;;;;;;;;;;5076502;28;20221;-78
2022/03/24 09:45:09;;;;;;;11.02;9.93;;;;;;;;;;5079635;28;20197;-78
2022/03/24 09:47:37;;;;;;;11.68;9.73;;;;;;;;;;5075752;28;20621;-78
2022/03/24 09:50:07;;;;;;;9.55;7.85;;;;;;;;;;5080271;28;20370;-79
2022/03/24 09:52:35;;;;;;;11.82;10.60;;;;;;;;;;5074890;28;20705;-77
2022/03/24 09:55:03;;;;;;;12.43;11.23;;;;;;;;;;5075259;28;20301;-78
2022/03/24 09:57:30;;;;;;;10.95;9.85;;;;;;;;;;5074647;28;20213;-78
2022/03/24 09:59:57;;;;;;;9.63;8.60;;;;;;;;;;5074942;28;20215;-77
2022/03/24 10:02:25;;;;;;;12.57;10.60;;;;;;;;;;5080320;28;20716;-79
2022/03/24 10:04:54;;;;;;;14.40;12.85;;;;;;;;;;5080662;28;20196;-79
2022/03/24 10:07:25;;;;;;;10.10;9.07;;;;;;;;;;5083557;28;20197;-80
2022/03/24 10:09:56;;;;;;;14.00;12.18;;;;;;;;;;5068701;28;20212;-80
2022/03/24 10:12:25;;;;;;;10.75;9.10;;;;;;;;;;5070211;28;20722;-79
2022/03/24 10:15:04;;;;;;;11.07;9.98;;;;;;;;;;5076209;28;20225;-79
2022/03/24 10:17:32;;;;;;;10.15;9.15;;;;;;;;;;5076188;28;20201;-80
2022/03/24 10:20:03;;;;;;;9.32;8.43;;;;;;;;;;5074922;28;20622;-78
2022/03/24 10:22:32;;;;;;;10.32;9.32;;;;;;;;;;5075668;28;20256;-78
2022/03/24 10:25:01;;;;;;;9.38;8.48;;;;;;;;;;5075688;28;20844;-78
2022/03/24 10:27:30;;;;;;;12.95;11.65;;;;;;;;;;5076094;28;20215;-79
2022/03/24 10:30:00;;;;;;;12.10;10.85;;;;;;;;;;5075700;28;20212;-78
2022/03/24 10:32:32;;;;;;;9.82;8.93;;;;;;;;;;5075494;28;20285;-78
2022/03/24 10:35:09;;;;;;;9.52;8.52;;;;;;;;;;5078108;28;20217;-78
2022/03/24 10:37:39;;;;;;;10.23;8.45;;;;;;;;;;5081133;28;20212;-78
2022/03/24 10:40:09;;;;;;;13.50;12.10;;;;;;;;;;5075502;28;20197;-78
2022/03/24 10:42:38;;;;;;;11.20;10.15;;;;;;;;;;5074867;28;20221;-78
2022/03/24 10:45:11;;;;;;;9.18;8.27;;;;;;;;;;5074814;28;20209;-79
2022/03/24 10:47:44;;;;;;;10.05;9.05;;;;;;;;;;5069071;28;20310;-79
2022/03/24 10:50:42;;;;;;;8.98;8.20;;;;;;;;;;5069748;28;20209;-79
2022/03/24 10:53:13;;;;;;;10.75;9.70;;;;;;;;;;5012737;28;20655;-79
2022/03/24 10:55:55;;;;;;;9.02;8.02;;;;;;;;;;5062294;28;20208;-79
2022/03/24 10:58:26;;;;;;;7.32;6.63;;;;;;;;;;5075160;28;20205;-79
2022/03/24 11:00:55;;;;;;;8.23;7.47;;;;;;;;;;5075412;28;20278;-79
2022/03/24 11:03:23;;;;;;;8.02;6.97;;;;;;;;;;5074704;28;20256;-79
2022/03/24 11:05:51;;;;;;;10.48;9.57;;;;;;;;;;5074969;28;20270;-78
2022/03/24 11:08:20;;;;;;;9.48;8.48;;;;;;;;;;5075261;28;20224;-78
2022/03/24 11:10:49;;;;;;;10.77;9.65;;;;;;;;;;5076246;28;20216;-78
2022/03/24 11:13:26;;;;;;;11.23;9.90;;;;;;;;;;5075089;28;20221;-78
2022/03/24 11:15:54;;;;;;;7.85;6.93;;;;;;;;;;5075590;28;20204;-78
2022/03/24 11:18:24;;;;;;;8.18;7.45;;;;;;;;;;5075395;28;20274;-78
2022/03/24 11:20:51;;;;;;;8.15;7.38;;;;;;;;;;5075617;28;20205;-79
2022/03/24 11:23:39;;;;;;;8.52;7.65;;;;;;;;;;5074700;28;20231;-79
2022/03/24 11:26:08;;;;;;;11.35;10.30;;;;;;;;;;5075263;28;20631;-79
2022/03/24 11:28:36;;;;;;;8.52;7.43;;;;;;;;;;5074483;28;20209;-78
2022/03/24 11:31:07;;;;;;;7.70;7.05;;;;;;;;;;5074977;28;20266;-79
2022/03/24 11:33:45;;;;;;;8.50;7.70;;;;;;;;;;5074331;28;20232;-79
2022/03/24 11:36:14;;;;;;;9.68;8.77;;;;;;;;;;5070070;28;20204;-80
2022/03/24 11:38:43;;;;;;;10.85;9.35;;;;;;;;;;5076712;28;20201;-78
2022/03/24 11:41:21;;;;;;;10.32;9.35;;;;;;;;;;5076795;28;20209;-79
2022/03/24 11:43:52;;;;;;;9.98;9.07;;;;;;;;;;5079196;28;20225;-77
2022/03/24 11:46:31;;;;;;;10.07;8.68;;;;;;;;;;5083267;28;20216;-79
2022/03/24 11:49:20;;;;;;;9.02;8.15;;;;;;;;;;5075322;28;20613;-79
2022/03/24 11:51:49;;;;;;;8.63;7.82;;;;;;;;;;5076220;28;20677;-79
2022/03/24 11:54:32;;;;;;;7.25;6.55;;;;;;;;;;5074680;28;20229;-79
2022/03/24 11:57:32;;;;;;;12.57;11.23;;;;;;;;;;5075214;28;20201;-78
2022/03/24 12:00:40;;;;;;;10.15;9.23;;;;;;;;;;5075675;28;20681;-77
2022/03/24 12:03:43;;;;;;;12.95;11.68;;;;;;;;;;5081352;28;20223;-77
2022/03/24 12:06:13;;;;;;;10.35;9.25;;;;;;;;;;5073377;28;20205;-78
2022/03/24 12:08:52;;;;;;;9.15;8.32;;;;;;;;;;5077632;28;20235;-78
2022/03/24 12:11:44;;;;;;;9.73;8.73;;;;;;;;;;5075624;28;20208;-78
2022/03/24 12:14:18;;;;;;;6.60;6.00;;;;;;;;;;5070052;28;20370;-78
2022/03/24 12:16:48;;;;;;;5.53;4.90;;;;;;;;;;5075092;28;20240;-78
2022/03/24 12:19:46;;;;;;;8.13;7.15;;;;;;;;;;5074878;28;20688;-78
2022/03/24 12:22:45;;;;;;;7.75;6.95;;;;;;;;;;5067303;28;20319;-77
2022/03/24 12:25:31;;;;;;;6.65;6.03;;;;;;;;;;5072262;28;20201;-76
2022/03/24 12:28:22;;;;;;;10.13;9.13;;;;;;;;;;5067379;28;20200;-77
2022/03/24 12:30:53;;;;;;;9.82;8.82;;;;;;;;;;5071613;28;20212;-78
2022/03/24 12:33:32;;;;;;;12.00;10.75;;;;;;;;;;5073608;28;20237;-78
2022/03/24 12:36:02;;;;;;;8.82;7.85;;;;;;;;;;5073160;28;20259;-78
2022/03/24 12:38:46;;;;;;;8.45;7.65;;;;;;;;;;5075078;28;20201;-78
2022/03/24 12:41:24;;;;;;;12.50;11.20;;;;;;;;;;5073562;28;20251;-78
2022/03/24 12:44:02;;;;;;;11.50;10.32;;;;;;;;;;5074217;28;20311;-78
2022/03/24 12:46:34;;;;;;;9.98;8.98;;;;;;;;;;5076846;28;20197;-78
2022/03/24 12:49:24;;;;;;;9.30;8.40;;;;;;;;;;5074515;28;20204;-77
2022/03/24 12:51:53;;;;;;;11.60;10.50;;;;;;;;;;5073665;28;20205;-78
2022/03/24 12:54:22;;;;;;;9.05;8.15;;;;;;;;;;5073324;28;20463;-78
2022/03/24 12:56:50;;;;;;;9.73;7.80;;;;;;;;;;5072550;28;20213;-78
2022/03/24 12:59:21;;;;;;;12.32;11.13;;;;;;;;;;5072546;28;20680;-78
2022/03/24 13:01:50;;;;;;;11.93;10.65;;;;;;;;;;5072562;28;20208;-78
2022/03/24 13:04:18;;;;;;;10.35;9.30;;;;;;;;;;5073239;28;20566;-77
2022/03/24 13:06:48;;;;;;;9.38;8.43;;;;;;;;;;5074532;28;20224;-77
2022/03/24 13:09:20;;;;;;;10.73;9.70;;;;;;;;;;5075446;28;20200;-78
2022/03/24 13:11:55;;;;;;;12.02;10.82;;;;;;;;;;5071621;28;20262;-77
2022/03/24 13:14:25;;;;;;;9.80;8.80;;;;;;;;;;5071642;28;20222;-77
2022/03/24 13:17:05;;;;;;;15.38;13.73;;;;;;;;;;5071573;28;20262;-77
2022/03/24 13:19:34;;;;;;;15.75;14.10;;;;;;;;;;5072111;28;20212;-77
2022/03/24 13:22:22;;;;;;;12.20;10.80;;;;;;;;;;5075320;28;20212;-77
2022/03/24 13:24:59;;;;;;;10.82;9.40;;;;;;;;;;5072083;28;20211;-76
2022/03/24 13:27:27;;;;;;;10.82;9.23;;;;;;;;;;5071870;28;20215;-77
2022/03/24 13:29:56;;;;;;;13.57;12.13;;;;;;;;;;5071952;28;20704;-77
2022/03/24 13:32:27;;;;;;;15.93;13.38;;;;;;;;;;5070985;28;20786;-76
2022/03/24 13:34:58;;;;;;;13.48;12.15;;;;;;;;;;5071462;28;20289;-75
2022/03/24 13:37:31;;;;;;;10.45;9.30;;;;;;;;;;5071098;28;20297;-76
2022/03/24 13:39:59;;;;;;;11.38;10.27;;;;;;;;;;5071451;28;20291;-75
2022/03/24 13:42:28;;;;;;;10.75;9.65;;;;;;;;;;5070915;28;20229;-75
2022/03/24 13:44:57;;;;;;;11.07;9.98;;;;;;;;;;5071098;28;20201;-76
2022/03/24 13:47:26;;;;;;;11.55;9.90;;;;;;;;;;5070827;28;20300;-76
2022/03/24 13:49:57;;;;;;;9.43;8.48;;;;;;;;;;5070913;28;20205;-76
2022/03/24 13:52:34;;;;;;;7.57;6.60;;;;;;;;;;5071025;28;20235;-77
2022/03/24 13:55:04;;;;;;;10.05;7.85;;;;;;;;;;5071176;28;20232;-77
2022/03/24 13:57:32;;;;;;;10.50;9.45;;;;;;;;;;5072401;28;20205;-76
2022/03/24 14:00:02;;;;;;;9.38;8.18;;;;;;;;;;5064581;28;20222;-77
2022/03/24 14:02:30;;;;;;;10.00;7.80;;;;;;;;;;5064203;28;20315;-76
2022/03/24 14:05:07;;;;;;;10.02;8.70;;;;;;;;;;5064729;28;20201;-76
2022/03/24 14:07:49;;;;;;;10.88;9.48;;;;;;;;;;5068279;28;20296;-77
2022/03/24 14:10:17;;;;;;;8.65;7.80;;;;;;;;;;5070437;28;20230;-76
2022/03/24 14:12:52;;;;;;;9.95;8.48;;;;;;;;;;5070551;28;20652;-76
2022/03/24 14:15:22;;;;;;;8.05;7.25;;;;;;;;;;5071295;28;20209;-75
2022/03/24 14:18:18;;;;;;;8.52;7.03;;;;;;;;;;5071391;28;20300;-76
2022/03/24 14:20:48;;;;;;;6.93;6.22;;;;;;;;;;5070080;28;20204;-76
2022/03/24 14:23:30;;;;;;;7.35;6.57;;;;;;;;;;5074188;28;20225;-75
2022/03/24 14:26:03;;;;;;;10.93;9.80;;;;;;;;;;5075018;28;20254;-77
2022/03/24 14:28:39;;;;;;;9.52;8.57;;;;;;;;;;5074998;28;20209;-77
2022/03/24 14:31:30;;;;;;;8.82;7.93;;;;;;;;;;5074445;28;20699;-78
2022/03/24 14:33:59;;;;;;;11.10;9.98;;;;;;;;;;5074091;28;20225;-75
2022/03/24 14:36:28;;;;;;;17.77;11.90;;;;;;;;;;5074523;28;20228;-76
2022/03/24 14:39:14;;;;;;;11.55;10.38;;;;;;;;;;5074790;28;20216;-76
2022/03/24 14:41:43;;;;;;;11.60;9.90;;;;;;;;;;5074469;28;20296;-77
2022/03/24 14:44:11;;;;;;;12.05;9.80;;;;;;;;;;5074196;28;20225;-76
2022/03/24 14:46:41;;;;;;;11.48;10.40;;;;;;;;;;5074613;28;20657;-77
2022/03/24 14:49:11;;;;;;;11.38;9.43;;;;;;;;;;5074680;28;20232;-77